createdAt,value
2022-07-29T00:01:35.227Z,0.00
2022-07-29T00:16:35.401Z,0.00
2022-07-29T00:31:35.577Z,0.00
2022-07-29T00:46:35.692Z,0.00
2022-07-29T01:01:35.791Z,0.00
2022-07-29T01:16:36.258Z,0.00
2022-07-29T01:31:37.152Z,0.00
2022-07-29T01:46:44.298Z,0.00
2022-07-29T02:01:45.138Z,0.00
2022-07-29T02:16:46.251Z,0.00
2022-07-29T02:31:47.784Z,0.00
2022-07-29T02:46:48.264Z,4.00
2022-07-29T03:01:48.446Z,16.00
2022-07-29T03:16:48.391Z,80.00
2022-07-29T03:31:49.014Z,216.00
2022-07-29T03:46:50.770Z,468.00
2022-07-29T04:01:51.460Z,752.00
2022-07-29T04:16:51.691Z,1080.00
2022-07-29T04:31:52.011Z,1892.00
2022-07-29T04:46:52.302Z,3044.00
2022-07-29T05:01:52.609Z,4144.00
2022-07-29T05:16:52.709Z,5164.00
2022-07-29T05:31:52.926Z,4204.00
2022-07-29T05:46:53.104Z,3076.00
2022-07-29T06:01:53.405Z,4692.00
2022-07-29T06:16:53.536Z,4768.00
2022-07-29T06:31:54.248Z,5360.00
2022-07-29T06:46:54.914Z,6600.00
2022-07-29T07:01:55.142Z,6460.00
2022-07-29T07:16:55.401Z,6656.00
2022-07-29T07:32:00.472Z,9944.00
2022-07-29T07:47:03.920Z,8212.00
2022-07-29T08:02:06.341Z,8192.00
2022-07-29T08:17:06.380Z,7748.00
2022-07-29T08:32:07.115Z,8460.00
2022-07-29T08:47:07.672Z,10116.00
2022-07-29T09:02:07.864Z,8780.00
2022-07-29T09:17:09.013Z,12000.00
2022-07-29T09:32:09.121Z,15520.00
2022-07-29T09:47:09.970Z,19104.00
2022-07-29T10:02:11.507Z,26400.00
2022-07-29T10:17:14.041Z,18592.00
2022-07-29T10:32:14.721Z,21728.00
2022-07-29T10:47:14.945Z,18880.00
2022-07-29T11:02:36.505Z,23776.00
2022-07-29T11:17:20.445Z,21984.00
2022-07-29T11:32:23.491Z,63392.00
2022-07-29T11:47:24.323Z,33440.00
2022-07-29T12:02:37.566Z,28800.00
2022-07-29T12:17:33.597Z,35296.00
2022-07-29T12:32:33.923Z,43424.00
2022-07-29T12:47:34.603Z,30528.00
2022-07-29T13:02:34.692Z,43296.00
2022-07-29T13:17:37.836Z,15172.00
2022-07-29T13:32:42.490Z,63584.00
2022-07-29T13:47:47.671Z,71520.00
2022-07-29T14:02:48.315Z,13988.00
2022-07-29T14:17:49.266Z,55072.00
2022-07-29T14:32:49.618Z,64960.00
2022-07-29T14:47:49.797Z,25856.00
2022-07-29T15:03:01.939Z,10384.00
2022-07-29T15:17:56.129Z,52352.00
2022-07-29T15:32:56.347Z,9036.00
2022-07-29T15:47:58.055Z,8732.00
2022-07-29T16:02:58.683Z,6328.00
2022-07-29T16:17:58.894Z,5724.00
2022-07-29T16:32:59.109Z,6868.00
2022-07-29T16:48:01.090Z,6300.00
2022-07-29T17:03:01.391Z,4240.00
2022-07-29T17:18:01.611Z,3832.00
2022-07-29T17:33:06.685Z,2840.00
2022-07-29T17:48:06.814Z,2680.00
2022-07-29T18:03:07.578Z,1800.00
2022-07-29T18:18:08.180Z,1248.00
2022-07-29T18:33:24.305Z,808.00
2022-07-29T18:48:15.363Z,500.00
2022-07-29T19:03:16.456Z,216.00
2022-07-29T19:18:16.601Z,44.00
2022-07-29T19:33:16.512Z,8.00
2022-07-29T19:48:16.735Z,0.00
2022-07-29T20:03:17.460Z,0.00
2022-07-29T20:18:18.568Z,0.00
2022-07-29T20:33:19.280Z,0.00
2022-07-29T20:48:19.552Z,0.00
2022-07-29T21:03:19.772Z,0.00
2022-07-29T21:18:19.868Z,0.00
2022-07-29T21:33:20.644Z,0.00
2022-07-29T21:48:21.363Z,0.00
2022-07-29T22:03:21.455Z,0.00
2022-07-29T22:18:22.114Z,0.00
2022-07-29T22:33:22.788Z,0.00
2022-07-29T22:48:22.940Z,0.00
2022-07-29T23:03:23.094Z,0.00
2022-07-29T23:18:23.174Z,0.00
2022-07-29T23:33:23.346Z,0.00
2022-07-29T23:48:23.982Z,0.00
